createdAt,value
2018-07-19T00:02:22.674Z,101161.00
2018-07-19T00:07:26.465Z,101162.00
2018-07-19T00:12:30.296Z,101159.00
2018-07-19T00:17:34.356Z,101163.00
2018-07-19T00:22:38.148Z,101165.00
2018-07-19T00:27:41.921Z,101162.00
2018-07-19T00:32:45.747Z,101168.00
2018-07-19T00:37:49.541Z,101163.00
2018-07-19T00:42:53.445Z,101163.00
2018-07-19T00:47:57.451Z,101166.00
2018-07-19T00:53:01.502Z,101162.00
2018-07-19T00:58:05.284Z,101169.00
2018-07-19T01:03:09.053Z,101167.00
2018-07-19T01:08:12.857Z,101162.00
2018-07-19T01:13:16.689Z,101166.00
2018-07-19T01:18:20.540Z,101170.00
2018-07-19T01:23:24.332Z,101175.00
2018-07-19T01:28:28.108Z,101173.00
2018-07-19T01:33:32.163Z,101174.00
2018-07-19T01:38:35.936Z,101172.00
2018-07-19T01:43:39.941Z,101174.00
2018-07-19T01:48:43.974Z,101175.00
2018-07-19T01:53:47.767Z,101173.00
2018-07-19T01:58:51.813Z,101167.00
2018-07-19T02:03:55.596Z,101168.00
2018-07-19T02:08:59.412Z,101166.00
2018-07-19T02:14:03.232Z,101172.00
2018-07-19T02:19:07.245Z,101179.00
2018-07-19T02:24:11.060Z,101179.00
2018-07-19T02:29:14.856Z,101182.00
2018-07-19T02:34:18.676Z,101183.00
2018-07-19T02:39:22.469Z,101191.00
2018-07-19T02:44:26.293Z,101191.00
2018-07-19T02:49:30.344Z,101193.00
2018-07-19T02:54:34.180Z,101185.00
2018-07-19T02:59:38.020Z,101188.00
2018-07-19T03:04:41.872Z,101181.00
2018-07-19T03:09:45.748Z,101176.00
2018-07-19T03:14:49.558Z,101171.00
2018-07-19T03:19:53.349Z,101178.00
2018-07-19T03:24:57.132Z,101179.00
2018-07-19T03:30:00.976Z,101174.00
2018-07-19T03:35:04.767Z,101171.00
2018-07-19T03:40:08.791Z,101175.00
2018-07-19T03:45:12.934Z,101180.00
2018-07-19T03:50:16.706Z,101181.00
2018-07-19T03:55:20.493Z,101173.00
2018-07-19T04:00:24.492Z,101176.00
2018-07-19T04:05:28.280Z,101182.00
2018-07-19T04:10:32.077Z,101183.00
2018-07-19T04:15:35.868Z,101181.00
2018-07-19T04:20:39.644Z,101175.00
2018-07-19T04:25:43.472Z,101170.00
2018-07-19T04:30:47.257Z,101172.00
2018-07-19T04:35:51.299Z,101167.00
2018-07-19T04:40:55.253Z,101172.00
2018-07-19T04:45:59.044Z,101175.00
2018-07-19T04:51:02.824Z,101182.00
2018-07-19T04:56:06.857Z,101182.00
2018-07-19T05:01:10.677Z,101179.00
2018-07-19T05:06:14.855Z,101181.00
2018-07-19T05:11:18.628Z,101186.00
2018-07-19T05:16:22.659Z,101188.00
2018-07-19T05:21:26.451Z,101185.00
2018-07-19T05:26:30.252Z,101189.00
2018-07-19T05:31:34.283Z,101186.00
2018-07-19T05:36:38.801Z,101189.00
2018-07-19T05:41:42.695Z,101191.00
2018-07-19T05:46:46.484Z,101197.00
2018-07-19T05:51:50.277Z,101195.00
2018-07-19T05:56:54.933Z,101194.00
2018-07-19T06:01:58.710Z,101194.00
2018-07-19T06:07:02.713Z,101196.00
2018-07-19T06:12:06.492Z,101195.00
2018-07-19T06:17:10.477Z,101195.00
2018-07-19T06:22:14.525Z,101200.00
2018-07-19T06:27:18.325Z,101194.00
2018-07-19T06:32:22.110Z,101201.00
2018-07-19T06:37:25.903Z,101203.00
2018-07-19T06:42:29.680Z,101207.00
2018-07-19T06:47:33.697Z,101210.00
2018-07-19T06:52:37.714Z,101208.00
2018-07-19T06:57:41.511Z,101211.00
2018-07-19T07:02:45.525Z,101211.00
2018-07-19T07:07:49.325Z,101207.00
2018-07-19T07:12:53.344Z,101220.00
2018-07-19T07:17:57.127Z,101219.00
2018-07-19T07:23:00.921Z,101220.00
2018-07-19T07:28:04.963Z,101221.00
2018-07-19T07:33:08.770Z,101218.00
2018-07-19T07:38:12.552Z,101220.00
2018-07-19T07:43:16.678Z,101220.00
2018-07-19T07:48:20.482Z,101221.00
2018-07-19T07:53:24.263Z,101223.00
2018-07-19T07:58:28.033Z,101212.00
2018-07-19T08:03:31.800Z,101213.00
2018-07-19T08:08:35.579Z,101213.00
2018-07-19T08:13:39.349Z,101219.00
2018-07-19T08:18:43.367Z,101210.00
2018-07-19T08:23:47.165Z,101203.00
2018-07-19T08:28:51.071Z,101208.00
2018-07-19T08:33:54.846Z,101204.00
2018-07-19T08:38:58.636Z,101201.00
2018-07-19T08:44:02.433Z,101194.00
2018-07-19T08:49:06.486Z,101197.00
2018-07-19T08:54:10.264Z,101188.00
2018-07-19T08:59:14.269Z,101190.00
2018-07-19T09:04:18.045Z,101188.00
2018-07-19T09:09:21.821Z,101188.00
2018-07-19T09:14:25.611Z,101195.00
2018-07-19T09:19:29.458Z,101184.00
2018-07-19T09:24:33.440Z,101198.00
2018-07-19T09:29:37.220Z,101189.00
2018-07-19T09:34:40.998Z,101189.00
2018-07-19T09:39:45.010Z,101176.00
2018-07-19T09:44:49.001Z,101185.00
2018-07-19T09:49:52.768Z,101178.00
2018-07-19T09:55:01.978Z,101175.00
2018-07-19T10:00:05.941Z,101167.00
2018-07-19T10:05:09.961Z,101172.00
2018-07-19T10:10:13.776Z,101161.00
2018-07-19T10:15:17.518Z,101153.00
2018-07-19T10:20:21.488Z,101152.00
2018-07-19T10:25:25.546Z,101150.00
2018-07-19T10:30:29.330Z,101140.00
2018-07-19T10:35:33.353Z,101141.00
2018-07-19T10:40:37.392Z,101138.00
2018-07-19T10:45:41.194Z,101136.00
2018-07-19T10:50:44.977Z,101130.00
2018-07-19T10:55:48.761Z,101133.00
2018-07-19T11:00:52.571Z,101129.00
2018-07-19T11:05:56.381Z,101122.00
2018-07-19T11:11:00.217Z,101120.00
2018-07-19T11:16:04.000Z,101121.00
2018-07-19T11:21:07.890Z,101114.00
2018-07-19T11:26:11.684Z,101110.00
2018-07-19T11:31:15.477Z,101103.00
2018-07-19T11:36:19.278Z,101098.00
2018-07-19T11:41:23.265Z,101097.00
2018-07-19T11:46:27.270Z,101090.00
2018-07-19T11:51:31.045Z,101084.00
2018-07-19T11:56:34.847Z,101088.00
2018-07-19T12:01:38.639Z,101079.00
2018-07-19T12:06:42.702Z,101074.00
2018-07-19T12:11:46.589Z,101069.00
2018-07-19T12:16:50.352Z,101064.00
2018-07-19T12:21:54.474Z,101065.00
2018-07-19T12:26:58.313Z,101057.00
2018-07-19T12:32:02.101Z,101062.00
2018-07-19T12:37:06.254Z,101053.00
2018-07-19T12:42:10.432Z,101043.00
2018-07-19T12:47:14.527Z,101037.00
2018-07-19T12:52:18.301Z,101040.00
2018-07-19T12:57:22.077Z,101033.00
2018-07-19T13:02:25.877Z,101038.00
2018-07-19T13:07:29.693Z,101038.00
2018-07-19T13:12:33.730Z,101041.00
2018-07-19T13:17:37.500Z,101040.00
2018-07-19T13:22:41.297Z,101041.00
2018-07-19T13:27:45.093Z,101037.00
2018-07-19T13:32:49.457Z,101028.00
2018-07-19T13:37:53.229Z,101023.00
2018-07-19T13:42:57.015Z,101018.00
2018-07-19T13:48:01.006Z,101020.00
2018-07-19T13:53:31.352Z,101013.00
2018-07-19T13:58:36.214Z,101014.00
2018-07-19T14:03:40.003Z,101010.00
2018-07-19T14:08:44.018Z,101002.00
2018-07-19T14:13:48.040Z,100999.00
2018-07-19T14:18:52.211Z,100991.00
2018-07-19T14:23:56.173Z,100995.00
2018-07-19T14:29:00.246Z,100986.00
2018-07-19T14:34:04.020Z,100983.00
2018-07-19T14:39:09.537Z,100985.00
2018-07-19T14:44:13.558Z,100985.00
2018-07-19T14:49:17.572Z,100973.00
2018-07-19T14:54:24.474Z,100971.00
2018-07-19T14:59:28.252Z,100972.00
2018-07-19T15:04:32.036Z,100962.00
2018-07-19T15:09:35.796Z,100954.00
2018-07-19T15:14:39.632Z,100951.00
2018-07-19T15:19:43.454Z,100946.00
2018-07-19T15:24:47.217Z,100939.00
2018-07-19T15:29:51.226Z,100936.00
2018-07-19T15:34:55.051Z,100937.00
2018-07-19T15:39:59.049Z,100923.00
2018-07-19T15:45:03.109Z,100925.00
2018-07-19T15:50:07.059Z,100918.00
2018-07-19T15:55:10.897Z,100909.00
2018-07-19T16:00:14.877Z,100913.00
2018-07-19T16:05:18.652Z,100903.00
2018-07-19T16:10:22.438Z,100906.00
2018-07-19T16:15:26.530Z,100903.00
2018-07-19T16:20:30.507Z,100893.00
2018-07-19T16:25:34.515Z,100895.00
2018-07-19T16:30:38.301Z,100889.00
2018-07-19T16:35:42.076Z,100883.00
2018-07-19T16:40:46.591Z,100879.00
2018-07-19T16:45:50.342Z,100879.00
2018-07-19T16:50:54.349Z,100884.00
2018-07-19T16:55:58.216Z,100879.00
2018-07-19T17:01:02.237Z,100875.00
2018-07-19T17:06:06.250Z,100877.00
2018-07-19T17:11:10.096Z,100877.00
2018-07-19T17:16:13.900Z,100868.00
2018-07-19T17:21:17.700Z,100866.00
2018-07-19T17:26:21.486Z,100861.00
2018-07-19T17:31:25.270Z,100861.00
2018-07-19T17:36:29.281Z,100863.00
2018-07-19T17:41:33.036Z,100859.00
2018-07-19T17:46:36.838Z,100861.00
2018-07-19T17:51:40.623Z,100866.00
2018-07-19T17:56:44.463Z,100856.00
2018-07-19T18:01:48.221Z,100859.00
2018-07-19T18:06:52.828Z,100858.00
2018-07-19T18:11:56.607Z,100856.00
2018-07-19T18:17:00.604Z,100853.00
2018-07-19T18:22:04.391Z,100859.00
2018-07-19T18:27:08.255Z,100858.00
2018-07-19T18:32:12.029Z,100848.00
2018-07-19T18:37:16.102Z,100848.00
2018-07-19T18:42:19.904Z,100850.00
2018-07-19T18:47:23.904Z,100856.00
2018-07-19T18:52:27.927Z,100852.00
2018-07-19T18:57:31.721Z,100849.00
2018-07-19T19:02:35.759Z,100852.00
2018-07-19T19:07:39.757Z,100857.00
2018-07-19T19:12:43.549Z,100852.00
2018-07-19T19:17:47.393Z,100849.00
2018-07-19T19:22:51.264Z,100861.00
2018-07-19T19:27:57.888Z,100868.00
2018-07-19T19:33:01.746Z,100875.00
2018-07-19T19:38:05.543Z,100882.00
2018-07-19T19:43:11.446Z,100882.00
2018-07-19T19:48:15.524Z,100885.00
2018-07-19T19:53:19.302Z,100884.00
2018-07-19T19:58:23.092Z,100884.00
2018-07-19T20:03:27.017Z,100885.00
2018-07-19T20:08:30.793Z,100883.00
2018-07-19T20:13:34.572Z,100887.00
2018-07-19T20:18:38.633Z,100887.00
2018-07-19T20:23:42.434Z,100887.00
2018-07-19T20:28:46.239Z,100885.00
2018-07-19T20:33:50.016Z,100886.00
2018-07-19T20:38:53.800Z,100884.00
2018-07-19T20:43:57.591Z,100883.00
2018-07-19T20:49:01.471Z,100887.00
2018-07-19T20:54:05.234Z,100886.00
2018-07-19T20:59:09.038Z,100881.00
2018-07-19T21:04:12.829Z,100841.00
2018-07-19T21:09:16.673Z,100881.00
2018-07-19T21:14:20.511Z,100881.00
2018-07-19T21:19:24.299Z,100885.00
2018-07-19T21:24:28.320Z,100881.00
2018-07-19T21:29:32.200Z,100886.00
2018-07-19T21:34:36.212Z,100883.00
2018-07-19T21:39:40.009Z,100888.00
2018-07-19T21:44:43.805Z,100883.00
2018-07-19T21:49:47.809Z,100882.00
2018-07-19T21:54:51.597Z,100882.00
2018-07-19T21:59:55.589Z,100880.00
2018-07-19T22:04:59.630Z,100880.00
2018-07-19T22:10:03.548Z,100880.00
2018-07-19T22:15:08.682Z,100884.00
2018-07-19T22:20:12.703Z,100888.00
2018-07-19T22:25:16.734Z,100898.00
2018-07-19T22:30:20.538Z,100895.00
2018-07-19T22:35:24.334Z,100902.00
2018-07-19T22:40:28.118Z,100897.00
2018-07-19T22:45:32.164Z,100898.00
2018-07-19T22:50:35.931Z,100897.00
2018-07-19T22:55:39.937Z,100898.00
2018-07-19T23:00:43.804Z,100904.00
2018-07-19T23:05:47.818Z,100905.00
2018-07-19T23:10:51.618Z,100914.00
2018-07-19T23:15:55.515Z,100911.00
2018-07-19T23:20:59.301Z,100915.00
2018-07-19T23:26:03.085Z,100910.00
2018-07-19T23:31:06.896Z,100907.00
2018-07-19T23:36:18.208Z,100904.00
2018-07-19T23:41:25.820Z,100901.00
2018-07-19T23:46:35.250Z,100900.00
2018-07-19T23:51:39.304Z,100896.00
2018-07-19T23:56:43.312Z,100897.00
